createdAt,value
2022-11-25T00:01:43.285Z,71.81
2022-11-25T00:04:12.547Z,71.74
2022-11-25T00:06:41.772Z,72.63
2022-11-25T00:09:13.911Z,72.21
2022-11-25T00:11:45.414Z,72.09
2022-11-25T00:14:16.777Z,72.10
2022-11-25T00:16:48.624Z,72.39
2022-11-25T00:19:18.548Z,72.32
2022-11-25T00:21:47.888Z,72.33
2022-11-25T00:24:18.229Z,72.27
2022-11-25T00:26:49.028Z,72.64
2022-11-25T00:29:18.435Z,72.46
2022-11-25T00:31:47.728Z,72.57
2022-11-25T00:34:17.151Z,72.15
2022-11-25T00:36:46.337Z,72.01
2022-11-25T00:39:17.032Z,72.06
2022-11-25T00:42:05.942Z,71.97
2022-11-25T00:44:38.960Z,72.70
2022-11-25T00:47:10.971Z,72.41
2022-11-25T00:49:41.056Z,72.45
2022-11-25T00:52:12.362Z,72.35
2022-11-25T00:54:41.596Z,72.45
2022-11-25T00:57:12.372Z,72.07
2022-11-25T00:59:41.805Z,72.50
2022-11-25T01:02:13.115Z,72.06
2022-11-25T01:04:42.519Z,72.59
2022-11-25T01:07:11.823Z,72.29
2022-11-25T01:09:41.260Z,72.37
2022-11-25T01:12:12.049Z,72.56
2022-11-25T01:14:41.717Z,71.93
2022-11-25T01:17:10.980Z,72.18
2022-11-25T01:19:40.864Z,72.23
2022-11-25T01:22:11.171Z,72.27
2022-11-25T01:24:40.412Z,72.02
2022-11-25T01:27:11.263Z,71.84
2022-11-25T01:29:42.148Z,72.37
2022-11-25T01:32:11.405Z,72.22
2022-11-25T01:34:40.677Z,72.42
2022-11-25T01:37:09.903Z,72.08
2022-11-25T01:39:40.215Z,72.21
2022-11-25T01:42:11.008Z,72.55
2022-11-25T01:44:44.257Z,72.04
2022-11-25T01:47:17.387Z,72.42
2022-11-25T01:49:50.990Z,72.39
2022-11-25T01:52:25.583Z,72.12
2022-11-25T01:54:58.048Z,72.45
2022-11-25T01:57:34.125Z,72.24
2022-11-25T02:00:06.412Z,72.53
2022-11-25T02:02:36.251Z,72.06
2022-11-25T02:05:09.918Z,72.10
2022-11-25T02:07:41.102Z,72.34
2022-11-25T02:10:14.876Z,72.19
2022-11-25T02:12:47.848Z,72.24
2022-11-25T02:15:18.887Z,72.16
2022-11-25T02:17:48.423Z,72.11
2022-11-25T02:20:19.492Z,72.25
2022-11-25T02:22:59.616Z,72.42
2022-11-25T02:25:33.114Z,72.05
2022-11-25T02:28:06.799Z,72.24
2022-11-25T02:30:36.110Z,72.05
2022-11-25T02:33:05.856Z,71.83
2022-11-25T02:35:37.567Z,72.68
2022-11-25T02:38:11.600Z,72.19
2022-11-25T02:40:48.113Z,72.29
2022-11-25T02:43:18.291Z,72.29
2022-11-25T02:45:57.551Z,72.22
2022-11-25T02:48:52.722Z,72.17
2022-11-25T02:51:18.334Z,71.98
2022-11-25T02:53:47.845Z,72.49
2022-11-25T02:56:19.451Z,72.26
2022-11-25T02:58:48.648Z,72.15
2022-11-25T03:01:17.813Z,72.40
2022-11-25T03:03:47.037Z,71.82
2022-11-25T03:06:16.293Z,72.34
2022-11-25T03:08:45.388Z,72.32
2022-11-25T03:11:14.537Z,71.74
2022-11-25T03:13:45.202Z,71.95
2022-11-25T03:16:14.500Z,71.95
2022-11-25T03:18:43.721Z,72.06
2022-11-25T03:21:12.815Z,71.55
2022-11-25T03:23:41.988Z,71.69
2022-11-25T03:26:11.122Z,71.42
2022-11-25T03:28:40.406Z,71.42
2022-11-25T03:31:14.227Z,71.24
2022-11-25T03:33:43.476Z,71.40
2022-11-25T03:36:12.757Z,71.58
2022-11-25T03:38:41.992Z,71.64
2022-11-25T03:41:11.188Z,71.38
2022-11-25T03:43:42.704Z,71.38
2022-11-25T03:46:13.423Z,71.75
2022-11-25T03:48:42.780Z,71.72
2022-11-25T03:51:12.237Z,70.99
2022-11-25T03:53:41.383Z,71.44
2022-11-25T03:56:10.737Z,71.65
2022-11-25T03:58:39.978Z,70.91
2022-11-25T04:01:16.376Z,70.96
2022-11-25T04:03:47.119Z,70.81
2022-11-25T04:06:16.576Z,71.35
2022-11-25T04:08:46.212Z,70.97
2022-11-25T04:11:15.484Z,71.31
2022-11-25T04:13:43.960Z,70.98
2022-11-25T04:16:22.313Z,70.56
2022-11-25T04:18:52.968Z,70.61
2022-11-25T04:21:22.265Z,70.83
2022-11-25T04:23:51.423Z,70.76
2022-11-25T04:26:20.608Z,70.80
2022-11-25T04:28:51.097Z,70.86
2022-11-25T04:31:21.813Z,70.83
2022-11-25T04:33:52.935Z,70.59
2022-11-25T04:36:22.172Z,70.13
2022-11-25T04:38:52.658Z,70.02
2022-11-25T04:41:24.502Z,70.43
2022-11-25T04:43:53.709Z,70.79
2022-11-25T04:46:26.813Z,70.19
2022-11-25T04:48:57.488Z,69.96
2022-11-25T04:51:26.628Z,70.36
2022-11-25T04:53:55.808Z,70.64
2022-11-25T04:56:24.949Z,70.41
2022-11-25T04:59:20.502Z,70.63
2022-11-25T05:01:49.844Z,70.07
2022-11-25T05:04:20.635Z,70.17
2022-11-25T05:06:51.953Z,69.89
2022-11-25T05:09:21.137Z,69.99
2022-11-25T05:11:50.230Z,70.07
2022-11-25T05:14:19.400Z,70.14
2022-11-25T05:16:48.549Z,69.79
2022-11-25T05:19:18.103Z,70.00
2022-11-25T05:21:50.078Z,70.05
2022-11-25T05:24:19.210Z,70.54
2022-11-25T05:26:48.526Z,70.02
2022-11-25T05:29:17.735Z,69.82
2022-11-25T05:31:46.994Z,69.65
2022-11-25T05:34:16.144Z,69.76
2022-11-25T05:36:45.319Z,70.34
2022-11-25T05:39:16.010Z,69.94
2022-11-25T05:41:45.202Z,70.28
2022-11-25T05:44:18.393Z,70.28
2022-11-25T05:46:50.664Z,70.01
2022-11-25T05:49:21.385Z,69.83
2022-11-25T05:51:50.583Z,70.26
2022-11-25T05:54:21.256Z,70.16
2022-11-25T05:56:50.501Z,69.69
2022-11-25T05:59:19.613Z,69.69
2022-11-25T06:01:48.757Z,69.54
2022-11-25T06:04:17.811Z,69.45
2022-11-25T06:06:47.008Z,68.98
2022-11-25T06:09:16.145Z,69.59
2022-11-25T06:11:46.822Z,69.19
2022-11-25T06:14:18.034Z,69.51
2022-11-25T06:16:47.189Z,68.85
2022-11-25T06:19:16.276Z,68.27
2022-11-25T06:21:45.433Z,69.26
2022-11-25T06:24:14.503Z,68.93
2022-11-25T06:26:43.635Z,68.27
2022-11-25T06:29:14.284Z,69.03
2022-11-25T06:31:43.525Z,69.04
2022-11-25T06:34:12.750Z,69.37
2022-11-25T06:36:41.818Z,69.05
2022-11-25T06:39:11.150Z,68.97
2022-11-25T06:41:40.322Z,69.08
2022-11-25T06:44:09.542Z,68.99
2022-11-25T06:46:40.267Z,68.24
2022-11-25T06:49:11.656Z,68.44
2022-11-25T06:51:40.857Z,68.46
2022-11-25T06:54:10.808Z,68.64
2022-11-25T06:56:46.319Z,68.92
2022-11-25T06:59:17.925Z,68.30
2022-11-25T07:01:50.222Z,68.46
2022-11-25T07:04:19.658Z,69.16
2022-11-25T07:06:50.699Z,68.88
2022-11-25T07:09:20.245Z,68.28
2022-11-25T07:11:50.187Z,68.20
2022-11-25T07:14:20.391Z,68.89
2022-11-25T07:16:51.334Z,68.11
2022-11-25T07:19:21.090Z,68.20
2022-11-25T07:21:50.264Z,68.71
2022-11-25T07:24:20.389Z,68.88
2022-11-25T07:26:49.431Z,68.55
2022-11-25T07:29:44.421Z,68.88
2022-11-25T07:32:10.865Z,68.53
2022-11-25T07:34:40.236Z,68.77
2022-11-25T07:37:09.893Z,68.57
2022-11-25T07:39:39.317Z,68.45
2022-11-25T07:42:08.591Z,69.04
2022-11-25T07:44:37.633Z,68.03
2022-11-25T07:47:06.907Z,68.54
2022-11-25T07:49:47.355Z,68.00
2022-11-25T07:52:16.482Z,67.77
2022-11-25T07:54:45.773Z,67.97
2022-11-25T07:57:15.123Z,68.29
2022-11-25T07:59:44.178Z,68.25
2022-11-25T08:02:13.333Z,67.47
2022-11-25T08:04:43.968Z,68.03
2022-11-25T08:07:13.515Z,68.04
2022-11-25T08:09:42.946Z,68.04
2022-11-25T08:12:12.215Z,67.90
2022-11-25T08:14:41.313Z,68.12
2022-11-25T08:17:10.647Z,68.07
2022-11-25T08:19:40.677Z,68.38
2022-11-25T08:22:11.331Z,68.68
2022-11-25T08:24:40.567Z,67.62
2022-11-25T08:27:09.751Z,68.08
2022-11-25T08:29:40.857Z,67.41
2022-11-25T08:32:12.847Z,67.25
2022-11-25T08:34:42.021Z,67.54
2022-11-25T08:37:12.765Z,67.91
2022-11-25T08:39:52.594Z,68.31
2022-11-25T08:42:22.579Z,67.99
2022-11-25T08:44:56.013Z,67.83
2022-11-25T08:47:25.479Z,67.67
2022-11-25T08:49:55.238Z,67.98
2022-11-25T08:52:27.094Z,68.12
2022-11-25T08:54:56.558Z,67.92
2022-11-25T08:57:25.678Z,68.02
2022-11-25T08:59:54.735Z,68.03
2022-11-25T09:02:23.943Z,68.32
2022-11-25T09:04:53.130Z,68.08
2022-11-25T09:07:26.100Z,67.86
2022-11-25T09:10:01.005Z,68.04
2022-11-25T09:12:30.326Z,67.68
2022-11-25T09:15:00.180Z,67.29
2022-11-25T09:17:29.310Z,67.46
2022-11-25T09:19:58.463Z,67.25
2022-11-25T09:22:27.697Z,67.68
2022-11-25T09:24:57.076Z,67.04
2022-11-25T09:27:45.591Z,67.81
2022-11-25T09:30:15.377Z,67.08
2022-11-25T09:32:44.770Z,67.05
2022-11-25T09:35:14.865Z,67.14
2022-11-25T09:37:44.125Z,67.17
2022-11-25T09:40:20.384Z,67.82
2022-11-25T09:43:14.582Z,67.57
2022-11-25T09:46:10.084Z,67.08
2022-11-25T09:49:00.250Z,67.97
2022-11-25T09:51:41.039Z,67.60
2022-11-25T09:54:19.581Z,68.11
2022-11-25T09:56:53.376Z,68.36
2022-11-25T09:59:33.963Z,68.04
2022-11-25T10:02:06.802Z,67.91
2022-11-25T10:04:43.561Z,68.15
2022-11-25T10:07:21.745Z,68.20
2022-11-25T10:09:50.900Z,68.50
2022-11-25T10:12:26.793Z,68.62
2022-11-25T10:15:02.591Z,68.58
2022-11-25T10:17:40.476Z,68.67
2022-11-25T10:20:16.929Z,68.64
2022-11-25T10:22:49.476Z,68.37
2022-11-25T10:25:20.618Z,67.91
2022-11-25T10:27:54.819Z,68.19
2022-11-25T10:30:27.560Z,68.15
2022-11-25T10:33:05.808Z,68.05
2022-11-25T10:35:40.439Z,68.23
2022-11-25T10:38:19.049Z,68.61
2022-11-25T10:40:53.315Z,67.96
2022-11-25T10:43:25.009Z,68.24
2022-11-25T10:46:08.912Z,67.94
2022-11-25T10:48:56.374Z,68.16
2022-11-25T10:51:41.629Z,68.63
2022-11-25T10:54:14.536Z,68.26
2022-11-25T10:56:53.770Z,68.27
2022-11-25T10:59:31.709Z,68.11
2022-11-25T11:02:21.232Z,68.44
2022-11-25T11:04:59.304Z,68.33
2022-11-25T11:07:30.961Z,68.32
2022-11-25T11:10:18.022Z,68.51
2022-11-25T11:12:57.180Z,68.47
2022-11-25T11:15:29.347Z,68.84
2022-11-25T11:18:01.509Z,69.02
2022-11-25T11:20:31.891Z,68.72
2022-11-25T11:23:08.862Z,68.99
2022-11-25T11:25:40.121Z,69.43
2022-11-25T11:28:27.802Z,69.05
2022-11-25T11:31:00.620Z,69.17
2022-11-25T11:33:42.004Z,69.00
2022-11-25T11:36:36.434Z,68.95
2022-11-25T11:39:24.039Z,68.66
2022-11-25T11:42:02.177Z,68.96
2022-11-25T11:44:42.112Z,69.00
2022-11-25T11:47:25.094Z,68.63
2022-11-25T11:50:24.368Z,68.60
2022-11-25T11:52:59.674Z,68.76
2022-11-25T11:56:05.685Z,68.36
2022-11-25T11:58:51.494Z,69.10
2022-11-25T12:01:39.798Z,68.68
2022-11-25T12:04:19.427Z,68.91
2022-11-25T12:07:02.059Z,69.02
2022-11-25T12:09:34.573Z,68.90
2022-11-25T12:12:08.659Z,69.02
2022-11-25T12:14:44.253Z,69.04
2022-11-25T12:17:20.425Z,68.77
2022-11-25T12:19:57.727Z,69.32
2022-11-25T12:22:34.399Z,68.79
2022-11-25T12:25:11.693Z,68.96
2022-11-25T12:27:47.182Z,69.22
2022-11-25T12:30:19.719Z,68.98
2022-11-25T12:32:59.890Z,69.00
2022-11-25T12:35:45.596Z,68.84
2022-11-25T12:38:25.706Z,68.86
2022-11-25T12:41:05.223Z,69.17
2022-11-25T12:43:41.900Z,69.17
2022-11-25T12:46:21.048Z,69.48
2022-11-25T12:48:50.443Z,69.14
2022-11-25T12:51:30.481Z,69.16
2022-11-25T12:54:17.966Z,69.11
2022-11-25T12:57:03.800Z,69.30
2022-11-25T12:59:50.716Z,69.41
2022-11-25T13:02:48.771Z,69.22
2022-11-25T13:05:47.423Z,69.33
2022-11-25T13:08:29.690Z,69.11
2022-11-25T13:11:18.017Z,69.75
2022-11-25T13:13:55.667Z,69.36
2022-11-25T13:16:28.940Z,69.29
2022-11-25T13:18:58.727Z,69.58
2022-11-25T13:21:29.570Z,69.41
2022-11-25T13:24:00.466Z,69.26
2022-11-25T13:26:51.730Z,69.39
2022-11-25T13:30:03.106Z,69.53
2022-11-25T13:32:38.358Z,69.60
2022-11-25T13:35:33.948Z,69.61
2022-11-25T13:38:03.211Z,69.22
2022-11-25T13:40:41.874Z,69.72
2022-11-25T13:43:27.335Z,69.71
2022-11-25T13:45:57.636Z,69.85
2022-11-25T13:48:30.350Z,69.39
2022-11-25T13:51:18.712Z,69.90
2022-11-25T13:53:55.709Z,69.64
2022-11-25T13:56:31.225Z,69.66
2022-11-25T13:59:37.454Z,69.60
2022-11-25T14:02:45.706Z,69.82
2022-11-25T14:05:59.299Z,69.48
2022-11-25T14:08:40.382Z,69.46
2022-11-25T14:11:44.798Z,69.42
2022-11-25T14:14:43.964Z,69.70
2022-11-25T14:17:32.009Z,69.74
2022-11-25T14:20:19.079Z,69.87
2022-11-25T14:23:24.487Z,69.82
2022-11-25T14:25:55.919Z,69.47
2022-11-25T14:28:33.974Z,69.80
2022-11-25T14:31:13.180Z,69.53
2022-11-25T14:33:53.495Z,69.99
2022-11-25T14:36:26.525Z,69.81
2022-11-25T14:39:01.460Z,69.70
2022-11-25T14:41:37.007Z,69.61
2022-11-25T14:44:07.623Z,70.11
2022-11-25T14:46:53.130Z,69.80
2022-11-25T14:49:45.262Z,69.96
2022-11-25T14:52:12.802Z,69.85
2022-11-25T14:54:43.954Z,70.04
2022-11-25T14:57:14.557Z,70.00
2022-11-25T14:59:45.775Z,69.57
2022-11-25T15:02:28.698Z,69.70
2022-11-25T15:05:18.114Z,69.81
2022-11-25T15:07:57.874Z,69.86
2022-11-25T15:10:35.634Z,70.16
2022-11-25T15:13:15.141Z,69.80
2022-11-25T15:15:48.256Z,69.66
2022-11-25T15:18:23.676Z,69.87
2022-11-25T15:20:59.282Z,70.26
2022-11-25T15:23:34.944Z,69.96
2022-11-25T15:26:05.093Z,70.18
2022-11-25T15:28:38.648Z,69.89
2022-11-25T15:31:13.101Z,70.23
2022-11-25T15:33:44.414Z,69.57
2022-11-25T15:36:13.633Z,70.20
2022-11-25T15:38:45.002Z,70.14
2022-11-25T15:41:26.404Z,70.33
2022-11-25T15:44:00.033Z,69.92
2022-11-25T15:46:30.106Z,69.89
2022-11-25T15:49:09.532Z,70.02
2022-11-25T15:51:43.487Z,70.37
2022-11-25T15:54:20.734Z,70.45
2022-11-25T15:56:51.991Z,70.47
2022-11-25T15:59:47.715Z,70.00
2022-11-25T16:02:39.304Z,69.73
2022-11-25T16:05:19.279Z,70.07
2022-11-25T16:08:21.170Z,69.83
2022-11-25T16:10:56.704Z,70.02
2022-11-25T16:13:42.845Z,70.26
2022-11-25T16:16:33.390Z,70.53
2022-11-25T16:19:21.369Z,69.93
2022-11-25T16:22:01.919Z,69.82
2022-11-25T16:24:51.038Z,69.80
2022-11-25T16:27:25.316Z,69.60
2022-11-25T16:29:57.569Z,70.40
2022-11-25T16:32:28.406Z,69.76
2022-11-25T16:34:58.361Z,70.38
2022-11-25T16:37:29.041Z,70.16
2022-11-25T16:39:58.319Z,70.28
2022-11-25T16:42:27.523Z,70.06
2022-11-25T16:44:56.699Z,69.86
2022-11-25T16:47:27.233Z,70.64
2022-11-25T16:49:56.557Z,70.61
2022-11-25T16:52:25.691Z,69.75
2022-11-25T16:54:58.872Z,70.71
2022-11-25T16:57:28.029Z,70.37
2022-11-25T17:00:02.681Z,70.24
2022-11-25T17:02:37.330Z,70.60
2022-11-25T17:05:18.414Z,70.26
2022-11-25T17:07:47.749Z,70.47
2022-11-25T17:10:18.942Z,70.75
2022-11-25T17:12:49.744Z,70.61
2022-11-25T17:15:21.756Z,70.04
2022-11-25T17:17:51.337Z,70.39
2022-11-25T17:20:25.217Z,70.04
2022-11-25T17:22:55.290Z,70.13
2022-11-25T17:25:33.671Z,70.50
2022-11-25T17:28:06.388Z,70.11
2022-11-25T17:30:35.742Z,70.53
2022-11-25T17:33:19.950Z,70.10
2022-11-25T17:35:54.082Z,69.95
2022-11-25T17:38:23.516Z,70.66
2022-11-25T17:40:54.523Z,69.90
2022-11-25T17:43:23.850Z,69.74
2022-11-25T17:45:53.293Z,70.29
2022-11-25T17:48:22.620Z,70.22
2022-11-25T17:50:51.806Z,69.74
2022-11-25T17:53:20.935Z,70.07
2022-11-25T17:55:50.209Z,70.18
2022-11-25T17:58:21.123Z,69.82
2022-11-25T18:00:50.607Z,70.08
2022-11-25T18:03:20.045Z,70.05
2022-11-25T18:05:49.262Z,69.59
2022-11-25T18:08:18.464Z,70.38
2022-11-25T18:10:48.924Z,69.77
2022-11-25T18:13:18.548Z,69.58
2022-11-25T18:15:49.478Z,70.03
2022-11-25T18:18:22.538Z,70.59
2022-11-25T18:20:51.719Z,69.75
2022-11-25T18:23:21.205Z,70.01
2022-11-25T18:25:50.727Z,69.97
2022-11-25T18:28:22.475Z,70.35
2022-11-25T18:30:55.054Z,70.09
2022-11-25T18:33:24.343Z,69.66
2022-11-25T18:35:53.511Z,70.18
2022-11-25T18:38:22.604Z,70.04
2022-11-25T18:40:54.177Z,69.84
2022-11-25T18:43:25.600Z,69.94
2022-11-25T18:45:57.656Z,69.70
2022-11-25T18:48:28.036Z,69.80
2022-11-25T18:50:57.898Z,70.29
2022-11-25T18:53:27.053Z,70.11
2022-11-25T18:55:56.423Z,70.65
2022-11-25T18:58:28.459Z,70.61
2022-11-25T19:01:04.038Z,69.72
2022-11-25T19:03:33.648Z,70.34
2022-11-25T19:06:03.697Z,69.70
2022-11-25T19:08:32.962Z,70.27
2022-11-25T19:11:02.133Z,69.72
2022-11-25T19:13:34.797Z,70.21
2022-11-25T19:16:09.421Z,70.22
2022-11-25T19:18:39.076Z,69.67
2022-11-25T19:21:08.666Z,69.74
2022-11-25T19:23:37.849Z,69.74
2022-11-25T19:26:12.297Z,70.38
2022-11-25T19:28:41.526Z,69.52
2022-11-25T19:31:13.679Z,69.87
2022-11-25T19:33:45.240Z,69.48
2022-11-25T19:36:22.859Z,69.63
2022-11-25T19:38:52.294Z,70.24
2022-11-25T19:41:21.791Z,69.85
2022-11-25T19:43:51.177Z,70.03
2022-11-25T19:46:33.193Z,69.71
2022-11-25T19:49:07.752Z,69.53
2022-11-25T19:51:37.213Z,69.54
2022-11-25T19:54:06.521Z,69.85
2022-11-25T19:56:37.988Z,69.50
2022-11-25T19:59:07.166Z,69.91
2022-11-25T20:01:42.616Z,69.46
2022-11-25T20:04:20.427Z,69.97
2022-11-25T20:06:50.703Z,70.25
2022-11-25T20:09:19.877Z,69.98
2022-11-25T20:11:54.512Z,69.76
2022-11-25T20:14:23.712Z,70.12
2022-11-25T20:16:54.424Z,70.20
2022-11-25T20:19:23.698Z,69.84
2022-11-25T20:21:53.013Z,69.52
2022-11-25T20:24:22.731Z,69.43
2022-11-25T20:26:53.787Z,69.86
2022-11-25T20:29:30.040Z,69.88
2022-11-25T20:32:01.481Z,69.87
2022-11-25T20:34:36.164Z,69.42
2022-11-25T20:37:08.067Z,69.26
2022-11-25T20:39:37.411Z,69.53
2022-11-25T20:42:07.255Z,69.36
2022-11-25T20:44:37.632Z,69.76
2022-11-25T20:47:14.744Z,69.59
2022-11-25T20:49:44.001Z,69.51
2022-11-25T20:52:22.033Z,69.21
2022-11-25T20:54:51.297Z,69.03
2022-11-25T20:57:20.381Z,69.14
2022-11-25T20:59:49.479Z,69.79
2022-11-25T21:02:21.964Z,69.43
2022-11-25T21:04:51.197Z,69.61
2022-11-25T21:07:20.444Z,69.46
2022-11-25T21:09:49.678Z,69.03
2022-11-25T21:12:19.664Z,69.07
2022-11-25T21:14:49.260Z,69.48
2022-11-25T21:17:20.576Z,69.00
2022-11-25T21:19:49.709Z,69.21
2022-11-25T21:22:19.218Z,69.38
2022-11-25T21:24:48.396Z,69.54
2022-11-25T21:27:20.375Z,69.45
2022-11-25T21:29:49.653Z,69.24
2022-11-25T21:32:24.589Z,69.63
2022-11-25T21:34:53.889Z,69.50
2022-11-25T21:37:31.475Z,68.94
2022-11-25T21:40:01.312Z,69.26
2022-11-25T21:42:33.313Z,69.40
2022-11-25T21:45:02.652Z,69.00
2022-11-25T21:47:33.360Z,69.25
2022-11-25T21:50:03.210Z,68.78
2022-11-25T21:52:32.407Z,69.34
2022-11-25T21:55:01.527Z,69.23
2022-11-25T21:57:31.312Z,69.38
2022-11-25T22:00:00.687Z,69.31
2022-11-25T22:02:29.839Z,68.75
2022-11-25T22:05:01.189Z,68.79
2022-11-25T22:07:31.132Z,68.99
2022-11-25T22:10:00.370Z,68.75
2022-11-25T22:12:34.278Z,68.71
2022-11-25T22:15:06.517Z,69.26
2022-11-25T22:17:35.674Z,68.78
2022-11-25T22:20:16.015Z,68.83
2022-11-25T22:22:45.347Z,68.96
2022-11-25T22:25:15.710Z,69.16
2022-11-25T22:27:45.612Z,68.97
2022-11-25T22:30:18.396Z,69.46
2022-11-25T22:32:48.711Z,68.90
2022-11-25T22:35:21.452Z,68.88
2022-11-25T22:37:55.159Z,68.75
2022-11-25T22:40:25.867Z,68.88
2022-11-25T22:42:58.143Z,68.38
2022-11-25T22:45:33.940Z,69.17
2022-11-25T22:48:06.985Z,68.71
2022-11-25T22:50:38.697Z,68.96
2022-11-25T22:53:13.942Z,68.72
2022-11-25T22:55:43.548Z,68.60
2022-11-25T22:58:13.695Z,68.52
2022-11-25T23:00:45.734Z,68.89
2022-11-25T23:03:19.479Z,68.89
2022-11-25T23:05:52.324Z,68.82
2022-11-25T23:08:23.583Z,69.01
2022-11-25T23:10:53.674Z,68.48
2022-11-25T23:13:23.367Z,68.52
2022-11-25T23:15:54.824Z,68.98
2022-11-25T23:18:28.003Z,68.42
2022-11-25T23:20:59.711Z,68.76
2022-11-25T23:23:30.676Z,68.94
2022-11-25T23:26:00.486Z,68.85
2022-11-25T23:28:29.642Z,68.78
2022-11-25T23:31:00.578Z,68.78
2022-11-25T23:33:33.119Z,68.76
2022-11-25T23:36:08.712Z,68.33
2022-11-25T23:38:43.304Z,68.55
2022-11-25T23:41:17.041Z,68.35
2022-11-25T23:43:46.384Z,68.56
2022-11-25T23:46:17.397Z,68.76
2022-11-25T23:48:53.787Z,68.84
2022-11-25T23:51:25.764Z,68.50
2022-11-25T23:53:56.202Z,68.92
2022-11-25T23:56:26.454Z,68.91
2022-11-25T23:58:55.672Z,69.01
